Aérodrome :
LOGIN :

S'inscrire | Disclaimer

   EN    FR    IT 

 










Légende :    VFR   VFR Marginal   IFR   IFR Intensif   IFR Très Intensif
Visi : 
Plafond : 
>= 8 km
>= 3000ft
5 à 8 km
1000 à 3000 ft
1500m à 5 km
500 à 1000 ft
800 à 1500m
200 à 500 ft
< 800m
< 200 ft
Symboles :   Orages  Brouillard  Fortes neiges  Fortes précipitations  Vent > 20 kt
SIGMETs :   Divers  Orages  Givrage  Turbulence  Onde Orograph.  Cendres Volcan.






- Altitude de l'aérodrome : 53 ft
- Code IATA : HAM


EDDH - Hamburg

DERNIER METAR :
  • 301920Z AUTO 05010KT CAVOK 22/17 Q1010 NOSIG

METARs EXPIRÉS :
  • 301850Z AUTO 05009KT CAVOK 23/16 Q1010 NOSIG
  • 301820Z AUTO 05009KT CAVOK 24/16 Q1010 NOSIG
  • 301750Z AUTO 05010KT CAVOK 25/16 Q1010 NOSIG
  • 301720Z AUTO 06011KT CAVOK 26/16 Q1010
  • 301650Z AUTO 04009KT CAVOK 27/16 Q1010 NOSIG

TAF TAF EDDH
Valide du 30 à 18h jusqu'au 02 à 00h UTC


301700Z 3018/0124 06009KT CAVOK
BECMG 3021/3023 12004KT
BECMG 0102/0104 27009KT BKN012
TEMPO 0102/0107 4000 SHRA BKN008 BKN050CB
PROB30
TEMPO 0102/0106 28015G30KT 2500 TSRA
TEMPO 0107/0113 3500 RA BKN006
BECMG 0112/0114 SCT025
BECMG 0116/0118 25004KT



MET'MAP, la Météo Aéronautique d'un coup d'oeil ! - Copyright ORBIFLY Décembre 2007 - Disclaimer

ORBIFLY MET'MAP TEAM :

Programmation & Développement : Alexandra Zaïnal
Sur une idée originale de : Baudouin d'Aumeries
Soutien technique & logistique : Manuel Goepfert
Assistance : Marc-Olivier Méhu




SOURCES & CREDITS :

   NOAA